Time;durP1;ratioP1;P1;durP2;ratioP2;P2;SDS_P1;SDS_P2;PMS_P1;PMS_P2;Temp;Humidity;BMP_temperature;BMP_pressure;BME280_temperature;BME280_humidity;BME280_pressure;Samples;Min_cycle;Max_cycle;Signal;HPM_P1;HPM_P2
2023/06/14 00:00:56;;;;;;;;;16.25;15.00;;;;;16.01;45.54;99705.28;5096810;28;9615;-57
2023/06/14 00:03:24;;;;;;;;;15.00;13.00;;;;;15.98;45.71;99708.31;5096558;28;8830;-57
2023/06/14 00:05:52;;;;;;;;;15.25;13.50;;;;;15.95;45.14;99705.09;5096545;28;8863;-59
2023/06/14 00:08:21;;;;;;;;;13.50;10.50;;;;;15.93;45.28;99712.50;5096046;28;8976;-59
2023/06/14 00:10:48;;;;;;;;;16.00;16.00;;;;;15.89;45.29;99716.47;5096560;28;8947;-57
2023/06/14 00:13:16;;;;;;;;;10.00;9.00;;;;;15.86;45.87;99714.13;5095933;28;8886;-59
2023/06/14 00:15:46;;;;;;;;;15.25;14.00;;;;;15.83;45.87;99722.50;5095966;28;8844;-58
2023/06/14 00:18:14;;;;;;;;;13.00;12.00;;;;;15.80;45.47;99728.19;5094944;28;8828;-59
2023/06/14 00:20:43;;;;;;;;;17.00;17.00;;;;;15.77;45.86;99728.53;5096906;28;8849;-58
2023/06/14 00:23:10;;;;;;;;;12.00;12.00;;;;;15.74;45.69;99718.09;5096071;28;8845;-57
2023/06/14 00:25:38;;;;;;;;;18.25;15.75;;;;;15.71;46.12;99726.47;5096195;28;8829;-59
2023/06/14 00:28:06;;;;;;;;;15.25;13.50;;;;;15.68;45.84;99721.41;5095422;28;8900;-58
2023/06/14 00:30:34;;;;;;;;;16.50;14.50;;;;;15.68;45.93;99729.47;5095329;28;8826;-58
2023/06/14 00:33:02;;;;;;;;;13.50;12.25;;;;;15.66;46.25;99726.09;5095899;28;8859;-60
2023/06/14 00:35:29;;;;;;;;;9.25;7.50;;;;;15.65;45.73;99729.78;5095694;28;8863;-59
2023/06/14 00:37:57;;;;;;;;;15.50;12.50;;;;;15.64;46.25;99722.75;5095609;28;8818;-57
2023/06/14 00:40:25;;;;;;;;;14.00;12.50;;;;;15.62;45.95;99730.13;5095895;28;8829;-57
2023/06/14 00:42:54;;;;;;;;;13.50;13.00;;;;;15.63;46.00;99731.81;5094718;28;8841;-59
2023/06/14 00:45:22;;;;;;;;;14.00;13.50;;;;;15.61;45.75;99734.63;5095107;28;8967;-59
2023/06/14 00:47:50;;;;;;;;;14.00;12.75;;;;;15.61;46.17;99733.81;5094555;28;8829;-59
2023/06/14 00:50:18;;;;;;;;;15.00;14.00;;;;;15.59;46.16;99725.91;5095504;28;9507;-58
2023/06/14 00:52:47;;;;;;;;;12.00;11.00;;;;;15.59;45.75;99725.06;5095965;28;8857;-59
2023/06/14 00:55:14;;;;;;;;;12.25;12.25;;;;;15.58;45.81;99731.44;5095530;28;8940;-57
2023/06/14 00:57:42;;;;;;;;;17.00;14.50;;;;;15.59;45.83;99725.06;5095673;28;8855;-59
2023/06/14 01:00:10;;;;;;;;;9.75;9.50;;;;;15.59;46.08;99733.97;5095251;28;8855;-60
2023/06/14 01:02:38;;;;;;;;;12.25;11.50;;;;;15.61;45.91;99737.31;5095276;28;8841;-59
2023/06/14 01:05:07;;;;;;;;;14.00;12.00;;;;;15.60;45.75;99738.31;5094682;28;8959;-59
2023/06/14 01:07:34;;;;;;;;;9.75;8.50;;;;;15.62;46.38;99746.22;5095702;28;8837;-57
2023/06/14 01:10:02;;;;;;;;;12.50;12.50;;;;;15.64;45.82;99749.59;5096073;28;8859;-59
2023/06/14 01:12:29;;;;;;;;;12.00;9.25;;;;;15.64;46.03;99749.59;5095674;28;8946;-60
2023/06/14 01:14:57;;;;;;;;;18.00;14.00;;;;;15.63;46.32;99747.91;5094871;28;8829;-59
2023/06/14 01:17:26;;;;;;;;;7.00;7.00;;;;;15.62;46.29;99746.22;5095696;28;8849;-58
2023/06/14 01:19:57;;;;;;;;;12.50;12.50;;;;;15.59;46.25;99747.38;5095586;28;8992;-59
2023/06/14 01:22:25;;;;;;;;;16.25;14.50;;;;;15.59;45.85;99755.44;5095288;28;8932;-59
2023/06/14 01:24:55;;;;;;;;;17.75;15.50;;;;;15.57;46.20;99754.75;5095553;28;8825;-59
2023/06/14 01:27:23;;;;;;;;;13.75;12.00;;;;;15.56;46.09;99755.72;5095605;28;8829;-59
2023/06/14 01:29:51;;;;;;;;;9.50;9.50;;;;;15.57;46.17;99751.22;5095663;28;8979;-59
2023/06/14 01:32:19;;;;;;;;;12.00;11.50;;;;;15.55;46.09;99756.72;5095645;28;8848;-60
2023/06/14 01:34:47;;;;;;;;;7.50;6.00;;;;;15.52;46.40;99754.38;5095141;28;8839;-59
2023/06/14 01:37:14;;;;;;;;;6.00;6.00;;;;;15.50;46.66;99752.84;5095904;28;8860;-59
2023/06/14 01:39:42;;;;;;;;;13.00;13.00;;;;;15.47;46.51;99753.19;5095430;28;8849;-59
2023/06/14 01:42:11;;;;;;;;;13.00;13.00;;;;;15.43;46.73;99751.78;5095776;28;8844;-58
2023/06/14 01:44:39;;;;;;;;;11.50;11.50;;;;;15.40;46.21;99746.75;5095194;28;8841;-59
2023/06/14 01:47:06;;;;;;;;;12.50;12.00;;;;;15.36;46.62;99750.72;5095436;28;9629;-59
2023/06/14 01:49:34;;;;;;;;;11.50;11.00;;;;;15.32;46.90;99750.19;5098374;28;8837;-60
2023/06/14 01:52:02;;;;;;;;;12.25;11.00;;;;;15.28;46.28;99748.81;5098619;28;8859;-59
2023/06/14 01:54:30;;;;;;;;;11.00;11.00;;;;;15.24;46.91;99752.78;5098525;28;8827;-59
2023/06/14 01:56:58;;;;;;;;;13.50;13.00;;;;;15.24;46.57;99751.97;5099093;28;8881;-59
2023/06/14 01:59:26;;;;;;;;;7.00;7.00;;;;;15.20;47.09;99753.25;5098363;28;8844;-57
2023/06/14 02:01:55;;;;;;;;;12.00;10.00;;;;;15.15;47.04;99748.38;5099033;28;8836;-60
2023/06/14 02:04:23;;;;;;;;;9.75;9.00;;;;;15.13;46.96;99749.53;5098916;28;8864;-57
2023/06/14 02:06:52;;;;;;;;;9.00;9.00;;;;;15.10;47.10;99747.97;5099311;28;8833;-58
2023/06/14 02:09:20;;;;;;;;;7.00;7.00;;;;;15.06;46.74;99748.44;5099008;28;8948;-57
2023/06/14 02:11:48;;;;;;;;;9.50;8.25;;;;;15.04;47.14;99745.09;5098568;28;8849;-59
2023/06/14 02:14:16;;;;;;;;;12.25;12.25;;;;;15.02;47.20;99747.91;5098551;28;8813;-57
2023/06/14 02:16:48;;;;;;;;;11.50;11.50;;;;;14.98;47.20;99746.56;5098728;28;8829;-58
2023/06/14 02:19:16;;;;;;;;;13.00;12.00;;;;;14.96;47.34;99745.03;5098757;28;8837;-59
2023/06/14 02:21:44;;;;;;;;;12.00;12.00;;;;;14.95;47.43;99746.03;5098401;28;8843;-60
2023/06/14 02:24:12;;;;;;;;;12.25;11.00;;;;;14.95;47.11;99754.91;5097806;28;8943;-59
2023/06/14 02:26:39;;;;;;;;;11.50;9.50;;;;;14.95;47.03;99751.38;5098793;28;8833;-59
2023/06/14 02:29:09;;;;;;;;;11.50;11.50;;;;;14.93;47.12;99754.22;5098416;28;8848;-57
2023/06/14 02:31:37;;;;;;;;;4.00;4.00;;;;;14.93;47.29;99748.00;5097963;28;8859;-59
2023/06/14 02:34:05;;;;;;;;;3.50;3.50;;;;;14.95;47.37;99752.22;5098386;28;9568;-57
2023/06/14 02:36:32;;;;;;;;;8.50;8.00;;;;;14.94;46.79;99757.75;5098015;28;8833;-57
2023/06/14 02:39:00;;;;;;;;;9.25;9.25;;;;;14.91;47.03;99748.16;5098282;28;8825;-59
2023/06/14 02:41:27;;;;;;;;;9.75;9.25;;;;;14.88;47.38;99755.69;5098697;28;8886;-60
2023/06/14 02:43:56;;;;;;;;;9.00;7.50;;;;;14.85;47.74;99750.59;5099307;28;8836;-57
2023/06/14 02:46:23;;;;;;;;;7.00;7.00;;;;;14.80;47.47;99752.94;5098303;28;8833;-57
2023/06/14 02:48:51;;;;;;;;;9.25;9.00;;;;;14.76;47.64;99751.53;5097764;28;8852;-59
2023/06/14 02:51:18;;;;;;;;;9.00;8.50;;;;;14.72;47.42;99751.00;5098109;28;8867;-58
2023/06/14 02:53:46;;;;;;;;;15.75;12.25;;;;;14.69;47.34;99745.94;5097923;28;8814;-57
2023/06/14 02:56:17;;;;;;;;;10.00;9.00;;;;;14.67;47.44;99747.94;5098331;28;8840;-59
2023/06/14 02:58:44;;;;;;;;;9.00;9.00;;;;;14.63;47.99;99757.28;5097949;28;8863;-59
2023/06/14 03:01:12;;;;;;;;;7.50;7.50;;;;;14.59;47.72;99755.91;5097632;28;8860;-59
2023/06/14 03:03:40;;;;;;;;;15.00;12.50;;;;;14.57;48.34;99770.44;5097922;28;8833;-57
2023/06/14 03:06:08;;;;;;;;;6.75;6.25;;;;;14.55;47.81;99775.94;5097581;28;8840;-59
2023/06/14 03:08:38;;;;;;;;;6.00;5.00;;;;;14.53;48.12;99769.06;5097219;28;8836;-58
2023/06/14 03:11:06;;;;;;;;;8.50;7.00;;;;;14.48;47.71;99780.22;5097174;28;8918;-59
2023/06/14 03:13:34;;;;;;;;;10.00;10.00;;;;;14.45;48.31;99779.69;5096762;28;8841;-59
2023/06/14 03:16:02;;;;;;;;;10.50;10.50;;;;;14.43;48.04;99782.50;5096862;28;8919;-59
2023/06/14 03:18:30;;;;;;;;;7.25;7.25;;;;;14.40;47.94;99790.00;5097848;28;8932;-59
2023/06/14 03:20:58;;;;;;;;;10.00;10.00;;;;;14.37;48.79;99787.63;5097190;28;8857;-59
2023/06/14 03:23:26;;;;;;;;;8.00;7.75;;;;;14.35;48.22;99790.44;5096775;28;8837;-59
2023/06/14 03:25:54;;;;;;;;;12.00;9.00;;;;;14.34;48.00;99796.81;5096580;28;8903;-57
2023/06/14 03:28:21;;;;;;;;;10.25;9.25;;;;;14.32;48.00;99798.78;5097382;28;8851;-59
2023/06/14 03:30:49;;;;;;;;;9.50;9.00;;;;;14.31;48.00;99798.94;5097006;28;8880;-59
2023/06/14 03:33:19;;;;;;;;;9.75;9.00;;;;;14.31;48.23;99799.78;5096359;28;8987;-57
2023/06/14 03:35:46;;;;;;;;;5.00;3.50;;;;;14.31;48.12;99805.16;5096651;28;8845;-59
2023/06/14 03:38:14;;;;;;;;;6.75;6.00;;;;;14.31;48.48;99810.50;5096656;28;8863;-59
2023/06/14 03:40:42;;;;;;;;;10.00;10.00;;;;;14.31;48.52;99815.00;5097146;28;8982;-59
2023/06/14 03:43:11;;;;;;;;;9.00;9.00;;;;;14.30;48.51;99810.66;5097803;28;8845;-57
2023/06/14 03:45:39;;;;;;;;;10.50;9.75;;;;;14.31;48.13;99817.69;5097241;28;8867;-59
2023/06/14 03:48:08;;;;;;;;;4.67;4.67;;;;;14.31;48.34;99815.00;5097045;28;8829;-57
2023/06/14 03:50:37;;;;;;;;;12.50;10.50;;;;;14.33;48.71;99819.22;5096432;28;8954;-58
2023/06/14 03:53:05;;;;;;;;;13.50;13.00;;;;;14.36;48.64;99823.44;5096150;28;8834;-58
2023/06/14 03:55:33;;;;;;;;;10.00;9.75;;;;;14.37;47.89;99822.44;5095482;28;8849;-57
2023/06/14 03:58:04;;;;;;;;;12.50;10.00;;;;;14.39;48.38;99828.50;5095992;28;8773;-59
2023/06/14 04:00:32;;;;;;;;;13.00;12.25;;;;;14.42;48.13;99834.41;5096821;28;8845;-58
2023/06/14 04:03:00;;;;;;;;;14.25;12.50;;;;;14.43;48.32;99841.44;5095668;28;8864;-58
2023/06/14 04:05:27;;;;;;;;;10.00;10.00;;;;;14.47;48.27;99842.00;5095559;28;8856;-59
2023/06/14 04:07:55;;;;;;;;;11.00;9.75;;;;;14.51;48.36;99843.41;5094522;28;8914;-58
2023/06/14 04:10:23;;;;;;;;;11.00;9.50;;;;;14.55;48.17;99844.78;5095313;28;8841;-58
2023/06/14 04:12:51;;;;;;;;;9.75;9.50;;;;;14.59;48.50;99847.03;5095516;28;8863;-57
2023/06/14 04:15:19;;;;;;;;;11.00;10.50;;;;;14.63;48.36;99856.44;5095955;28;8837;-58
2023/06/14 04:17:49;;;;;;;;;10.00;9.50;;;;;14.71;47.55;99861.06;5095562;28;8836;-58
2023/06/14 04:20:17;;;;;;;;;9.50;9.50;;;;;14.78;47.61;99856.75;5095707;28;8857;-57
2023/06/14 04:22:45;;;;;;;;;10.50;8.50;;;;;14.85;47.58;99863.22;5096198;28;8863;-58
2023/06/14 04:25:13;;;;;;;;;11.00;10.00;;;;;14.92;47.24;99867.84;5095726;28;8857;-57
2023/06/14 04:27:41;;;;;;;;;13.50;13.00;;;;;14.99;47.54;99857.34;5095801;28;8837;-58
2023/06/14 04:30:09;;;;;;;;;9.75;9.75;;;;;15.04;47.62;99863.09;5095251;28;8845;-58
2023/06/14 04:32:38;;;;;;;;;10.50;9.50;;;;;15.08;47.33;99862.63;5095607;28;8860;-58
2023/06/14 04:35:07;;;;;;;;;11.25;9.50;;;;;15.13;47.30;99857.66;5095834;28;8855;-59
2023/06/14 04:37:34;;;;;;;;;11.50;10.00;;;;;15.18;47.26;99865.25;5095523;28;8902;-58
2023/06/14 04:40:04;;;;;;;;;13.00;10.00;;;;;15.22;47.10;99856.75;5095552;28;9744;-57
2023/06/14 04:42:32;;;;;;;;;10.00;10.00;;;;;15.28;47.24;99863.31;5095048;28;8837;-57
2023/06/14 04:45:03;;;;;;;;;14.00;12.00;;;;;15.37;46.74;99875.84;5095406;28;8856;-58
2023/06/14 04:47:32;;;;;;;;;9.50;9.25;;;;;15.54;46.74;99866.97;5095900;28;8983;-57
2023/06/14 04:50:03;;;;;;;;;9.50;8.50;;;;;15.73;46.29;99873.00;5095566;28;8863;-59
2023/06/14 04:52:31;;;;;;;;;10.00;9.50;;;;;15.94;46.62;99869.94;5095448;28;8971;-57
2023/06/14 04:54:59;;;;;;;;;9.00;9.00;;;;;16.13;45.96;99875.09;5094659;28;8818;-59
2023/06/14 04:57:27;;;;;;;;;10.00;10.00;;;;;16.25;46.03;99875.50;5094774;28;8840;-59
2023/06/14 04:59:57;;;;;;;;;11.00;11.00;;;;;16.38;46.04;99874.28;5095227;28;8830;-59
2023/06/14 05:02:25;;;;;;;;;12.75;12.75;;;;;16.47;45.83;99883.06;5094810;28;8955;-58
2023/06/14 05:04:53;;;;;;;;;9.50;9.50;;;;;16.56;45.73;99876.72;5093562;28;8986;-58
2023/06/14 05:07:23;;;;;;;;;10.00;10.00;;;;;16.67;46.34;99878.28;5094674;28;8861;-59
2023/06/14 05:09:51;;;;;;;;;8.50;7.00;;;;;16.74;45.75;99872.09;5094159;28;8988;-59
2023/06/14 05:12:20;;;;;;;;;9.00;9.00;;;;;16.82;45.94;99873.97;5094520;28;8914;-58
2023/06/14 05:14:48;;;;;;;;;9.50;9.00;;;;;16.91;46.23;99878.34;5093576;28;8845;-58
2023/06/14 05:17:16;;;;;;;;;9.00;9.00;;;;;17.01;46.10;99879.91;5094839;28;8860;-57
2023/06/14 05:19:44;;;;;;;;;7.50;7.50;;;;;17.08;46.32;99874.72;5094211;28;9526;-57
2023/06/14 05:22:12;;;;;;;;;7.50;6.50;;;;;17.15;45.94;99886.50;5094644;28;8825;-57
2023/06/14 05:24:41;;;;;;;;;9.50;6.50;;;;;17.21;46.17;99881.31;5099163;28;8983;-57
2023/06/14 05:27:09;;;;;;;;;9.50;9.25;;;;;17.28;46.15;99882.31;5098543;28;8876;-56
2023/06/14 05:29:37;;;;;;;;;9.50;9.00;;;;;17.37;46.44;99881.34;5098617;28;8853;-60
2023/06/14 05:32:04;;;;;;;;;9.75;9.50;;;;;17.46;46.40;99890.28;5098577;28;8922;-57
2023/06/14 05:34:32;;;;;;;;;10.00;9.50;;;;;17.51;46.00;99883.38;5098110;28;8947;-58
2023/06/14 05:37:00;;;;;;;;;7.00;6.00;;;;;17.57;46.20;99884.56;5097650;28;8853;-59
2023/06/14 05:39:28;;;;;;;;;10.50;10.50;;;;;17.65;46.15;99880.03;5097747;28;8836;-59
2023/06/14 05:41:55;;;;;;;;;10.00;9.00;;;;;17.77;45.98;99880.53;5098324;28;8845;-58
2023/06/14 05:44:23;;;;;;;;;12.00;10.25;;;;;17.86;45.81;99888.44;5099168;28;8843;-59
2023/06/14 05:46:51;;;;;;;;;9.50;9.00;;;;;17.99;46.08;99885.25;5097572;28;8837;-59
2023/06/14 05:49:19;;;;;;;;;9.75;9.75;;;;;18.10;45.75;99884.88;5097350;28;8872;-59
2023/06/14 05:51:47;;;;;;;;;7.50;6.50;;;;;18.16;45.67;99885.03;5097415;28;8837;-59
2023/06/14 05:54:15;;;;;;;;;6.75;6.75;;;;;18.26;45.75;99885.69;5096907;28;8975;-57
2023/06/14 05:56:43;;;;;;;;;6.25;6.00;;;;;18.36;45.84;99885.53;5094336;28;8829;-57
2023/06/14 05:59:10;;;;;;;;;9.75;9.00;;;;;18.44;45.99;99896.31;5095274;28;8867;-56
2023/06/14 06:01:40;;;;;;;;;9.75;9.00;;;;;18.49;45.97;99888.50;5095545;28;8959;-59
2023/06/14 06:04:07;;;;;;;;;9.00;9.00;;;;;18.57;45.73;99899.28;5095294;28;8853;-56
2023/06/14 06:06:36;;;;;;;;;9.25;8.00;;;;;18.66;45.93;99893.69;5094772;28;8837;-56
2023/06/14 06:09:04;;;;;;;;;12.00;12.00;;;;;18.77;45.58;99889.75;5094222;28;8861;-59
2023/06/14 06:11:32;;;;;;;;;9.00;9.00;;;;;18.87;45.41;99891.22;5094270;28;8865;-57
2023/06/14 06:14:15;;;;;;;;;10.50;10.00;;;;;18.96;45.61;99895.56;5094397;28;8829;-57
2023/06/14 06:16:43;;;;;;;;;7.50;7.50;;;;;19.06;45.46;99890.78;5093849;28;8857;-57
2023/06/14 06:19:10;;;;;;;;;10.00;9.00;;;;;19.17;45.39;99890.41;5095343;28;8881;-58
2023/06/14 06:21:38;;;;;;;;;10.50;10.50;;;;;19.29;44.93;99885.47;5095606;28;9510;-57
2023/06/14 06:24:06;;;;;;;;;11.00;10.00;;;;;19.38;44.95;99892.50;5097084;28;8833;-59
2023/06/14 06:26:34;;;;;;;;;9.00;7.00;;;;;19.46;44.79;99892.44;5097369;28;8837;-58
2023/06/14 06:29:01;;;;;;;;;12.40;12.00;;;;;19.57;44.69;99883.94;5096841;28;8853;-57
2023/06/14 06:31:29;;;;;;;;;9.20;8.80;;;;;19.66;44.59;99889.06;5096531;28;8833;-58
2023/06/14 06:33:57;;;;;;;;;11.60;9.40;;;;;19.75;44.49;99895.25;5095752;28;8857;-59
2023/06/14 06:36:25;;;;;;;;;10.00;9.40;;;;;19.80;45.00;99895.56;5095647;28;9625;-59
2023/06/14 06:38:53;;;;;;;;;9.00;9.00;;;;;19.86;44.67;99901.06;5096336;28;8966;-59
2023/06/14 06:41:21;;;;;;;;;7.80;7.60;;;;;19.94;45.12;99901.00;5096607;28;8849;-58
2023/06/14 06:43:48;;;;;;;;;8.20;7.20;;;;;19.99;44.88;99906.72;5096270;28;8848;-58
2023/06/14 06:46:18;;;;;;;;;8.20;6.80;;;;;20.08;44.55;99907.50;5094554;28;9617;-59
2023/06/14 06:48:46;;;;;;;;;7.40;7.00;;;;;20.14;44.61;99907.63;5095393;28;8840;-58
2023/06/14 06:51:14;;;;;;;;;9.40;9.40;;;;;20.20;44.89;99912.28;5094838;28;8861;-57
2023/06/14 06:53:42;;;;;;;;;8.20;8.20;;;;;20.29;44.32;99911.19;5095718;28;8845;-57
2023/06/14 06:56:10;;;;;;;;;1.80;1.80;;;;;20.38;44.17;99907.38;5095762;28;8839;-59
2023/06/14 06:58:38;;;;;;;;;8.00;5.00;;;;;20.51;44.34;99910.28;5096408;28;8848;-58
2023/06/14 07:01:09;;;;;;;;;7.40;7.40;;;;;20.65;43.84;99919.41;5095719;28;8829;-57
2023/06/14 07:03:36;;;;;;;;;9.60;9.60;;;;;20.77;43.98;99916.06;5096564;28;8848;-59
2023/06/14 07:06:04;;;;;;;;;5.00;4.40;;;;;20.88;43.98;99919.16;5095926;28;8863;-59
2023/06/14 07:08:33;;;;;;;;;2.00;2.00;;;;;20.96;43.40;99924.47;5096907;28;9563;-59
2023/06/14 07:11:02;;;;;;;;;9.20;8.00;;;;;21.02;43.91;99923.72;5096717;28;8860;-59
2023/06/14 07:13:30;;;;;;;;;8.00;8.00;;;;;21.04;43.30;99928.97;5096568;28;8841;-57
2023/06/14 07:15:58;;;;;;;;;10.00;8.00;;;;;21.06;43.73;99935.00;5095141;28;9013;-58
2023/06/14 07:18:26;;;;;;;;;7.00;7.00;;;;;21.06;43.72;99929.59;5095842;28;9534;-59
2023/06/14 07:20:54;;;;;;;;;8.00;8.00;;;;;21.03;43.67;99935.41;5096415;28;8861;-59
2023/06/14 07:23:22;;;;;;;;;7.00;7.00;;;;;21.00;44.01;99936.63;5095725;28;8848;-59
2023/06/14 07:25:50;;;;;;;;;6.20;6.20;;;;;20.98;43.64;99929.72;5095229;28;8833;-59
2023/06/14 07:28:19;;;;;;;;;7.60;7.00;;;;;21.02;43.80;99931.84;5095351;28;8837;-58
2023/06/14 07:30:48;;;;;;;;;7.00;7.00;;;;;21.07;44.07;99936.69;5095764;28;8863;-58
2023/06/14 07:33:16;;;;;;;;;7.00;7.00;;;;;21.09;43.56;99930.06;5094971;28;9689;-58
2023/06/14 07:35:45;;;;;;;;;7.80;7.00;;;;;21.15;44.02;99936.59;5094590;28;8833;-59
2023/06/14 07:38:13;;;;;;;;;7.40;7.00;;;;;21.16;44.05;99935.56;5095348;28;8859;-58
2023/06/14 07:40:41;;;;;;;;;7.00;7.00;;;;;21.14;44.08;99938.47;5095050;28;8849;-58
2023/06/14 07:43:09;;;;;;;;;7.00;7.00;;;;;21.18;44.24;99938.94;5096617;28;8837;-59
2023/06/14 07:45:38;;;;;;;;;7.00;7.00;;;;;21.23;43.85;99925.63;5093961;28;8887;-59
2023/06/14 07:48:08;;;;;;;;;10.00;7.00;;;;;21.28;43.77;99928.63;5095430;28;9581;-58
2023/06/14 07:50:36;;;;;;;;;7.80;7.00;;;;;21.33;43.57;99937.03;5095413;28;9003;-59
2023/06/14 07:53:04;;;;;;;;;5.00;5.00;;;;;21.40;43.92;99933.34;5094371;28;8840;-58
2023/06/14 07:55:36;;;;;;;;;11.60;8.00;;;;;21.46;43.73;99939.88;5094671;28;8879;-57
2023/06/14 07:58:20;;;;;;;;;7.00;7.00;;;;;21.50;43.35;99938.47;5094454;28;8845;-60
2023/06/14 08:00:49;;;;;;;;;7.20;7.00;;;;;21.48;43.32;99940.53;5094790;28;8845;-58
2023/06/14 08:03:18;;;;;;;;;4.80;4.40;;;;;21.47;43.82;99933.41;5094264;28;8852;-58
2023/06/14 08:05:46;;;;;;;;;5.00;5.00;;;;;21.51;43.65;99932.88;5094392;28;8899;-60
2023/06/14 08:08:14;;;;;;;;;4.80;4.80;;;;;21.57;43.26;99934.78;5094338;28;8825;-57
2023/06/14 08:10:42;;;;;;;;;4.60;4.60;;;;;21.67;43.12;99934.50;5094668;28;8837;-59
2023/06/14 08:13:10;;;;;;;;;7.00;5.00;;;;;21.68;43.16;99936.19;5094175;28;8853;-59
2023/06/14 08:15:40;;;;;;;;;4.40;4.00;;;;;21.73;43.19;99937.31;5095104;28;8959;-59
2023/06/14 08:18:08;;;;;;;;;4.40;4.40;;;;;21.82;42.86;99938.84;5094688;28;8918;-58
2023/06/14 08:20:36;;;;;;;;;5.00;5.00;;;;;21.89;42.56;99941.63;5095300;28;8928;-58
2023/06/14 08:23:04;;;;;;;;;5.80;5.40;;;;;21.91;42.63;99942.25;5094688;28;9538;-57
2023/06/14 08:25:32;;;;;;;;;6.40;6.40;;;;;21.95;41.95;99949.00;5094582;28;8837;-58
2023/06/14 08:28:00;;;;;;;;;5.00;4.60;;;;;21.98;41.68;99935.03;5095044;28;8841;-60
2023/06/14 08:30:28;;;;;;;;;4.40;4.40;;;;;22.02;41.93;99933.63;5094563;28;8837;-60
2023/06/14 08:32:56;;;;;;;;;5.20;5.00;;;;;22.09;42.05;99938.06;5094212;28;9000;-58
2023/06/14 08:35:41;;;;;;;;;6.40;5.00;;;;;22.17;41.75;99935.19;5094503;28;9553;-58
2023/06/14 08:38:09;;;;;;;;;4.00;2.00;;;;;22.16;41.84;99930.81;5095060;28;8856;-58
2023/06/14 08:40:38;;;;;;;;;4.60;4.40;;;;;22.19;41.47;99935.88;5094769;28;8853;-60
2023/06/14 08:43:07;;;;;;;;;4.00;4.00;;;;;22.23;41.80;99934.41;5094999;28;9526;-57
2023/06/14 08:45:35;;;;;;;;;4.80;4.80;;;;;22.29;41.62;99938.22;5095536;28;8869;-58
2023/06/14 08:48:03;;;;;;;;;5.80;5.80;;;;;22.33;41.26;99936.78;5094156;28;9011;-58
2023/06/14 08:50:31;;;;;;;;;4.20;4.20;;;;;22.36;41.45;99948.09;5092626;28;8853;-60
2023/06/14 08:53:02;;;;;;;;;5.20;4.60;;;;;22.44;40.89;99937.13;5093977;28;8975;-59
2023/06/14 08:55:32;;;;;;;;;4.60;4.00;;;;;22.56;40.98;99932.84;5093739;28;8856;-60
2023/06/14 08:58:04;;;;;;;;;3.20;3.20;;;;;22.63;40.94;99930.97;5093660;28;8851;-59
2023/06/14 09:00:34;;;;;;;;;4.00;4.00;;;;;22.73;40.68;99933.34;5094001;28;8841;-58
2023/06/14 09:03:03;;;;;;;;;5.40;5.40;;;;;22.81;40.36;99941.31;5094182;28;8853;-58
2023/06/14 09:05:31;;;;;;;;;4.60;4.00;;;;;22.88;40.38;99934.06;5094061;28;9520;-60
2023/06/14 09:08:00;;;;;;;;;5.00;5.00;;;;;22.98;40.07;99932.66;5093094;28;8845;-60
2023/06/14 09:10:35;;;;;;;;;2.00;2.00;;;;;23.08;40.23;99937.72;5093692;28;8829;-60
2023/06/14 09:13:03;;;;;;;;;4.80;4.00;;;;;23.14;39.96;99943.19;5093133;28;8870;-60
2023/06/14 09:15:31;;;;;;;;;4.20;4.20;;;;;23.16;40.11;99940.31;5093339;28;8848;-58
2023/06/14 09:17:59;;;;;;;;;4.20;4.20;;;;;23.23;39.87;99943.88;5092480;28;8833;-60
2023/06/14 09:20:27;;;;;;;;;5.00;4.40;;;;;23.36;39.35;99938.50;5093425;28;9592;-59
2023/06/14 09:22:56;;;;;;;;;4.00;4.00;;;;;23.54;39.09;99938.78;5092496;28;8864;-57
2023/06/14 09:25:24;;;;;;;;;2.00;2.00;;;;;23.67;39.31;99939.63;5093378;28;8883;-57
2023/06/14 09:28:06;;;;;;;;;4.60;4.40;;;;;23.81;38.67;99940.53;5093454;28;8845;-60
2023/06/14 09:30:34;;;;;;;;;5.00;4.80;;;;;23.89;39.08;99943.91;5092748;28;8877;-59
2023/06/14 09:33:02;;;;;;;;;5.80;4.80;;;;;23.96;38.93;99949.38;5092270;28;8892;-58
2023/06/14 09:35:31;;;;;;;;;5.00;5.00;;;;;24.09;39.10;99939.31;5092402;28;8849;-60
2023/06/14 09:37:59;;;;;;;;;4.80;4.80;;;;;24.18;38.36;99942.66;5093446;28;8864;-60
2023/06/14 09:40:27;;;;;;;;;3.20;3.20;;;;;24.33;38.19;99946.00;5093305;28;8844;-59
2023/06/14 09:42:55;;;;;;;;;3.20;3.20;;;;;24.38;38.34;99938.91;5093833;28;8922;-58
2023/06/14 09:45:23;;;;;;;;;5.20;4.60;;;;;24.45;38.50;99952.50;5092310;28;8919;-59
2023/06/14 09:47:52;;;;;;;;;5.00;5.00;;;;;24.56;38.02;99949.19;5092654;28;9643;-60
2023/06/14 09:50:34;;;;;;;;;6.00;5.00;;;;;24.70;37.80;99954.41;5092754;28;8861;-61
2023/06/14 09:53:04;;;;;;;;;3.40;3.40;;;;;24.72;37.47;99946.03;5093365;28;8868;-60
2023/06/14 09:55:32;;;;;;;;;3.00;3.00;;;;;24.76;37.80;99945.38;5093411;28;8924;-60
2023/06/14 09:58:00;;;;;;;;;3.40;3.00;;;;;24.88;37.50;99951.84;5092767;28;8868;-59
2023/06/14 10:00:31;;;;;;;;;5.60;5.20;;;;;25.14;37.08;99959.13;5092506;28;8864;-60
2023/06/14 10:02:59;;;;;;;;;2.00;2.00;;;;;25.41;37.32;99952.56;5092298;28;8872;-59
2023/06/14 10:05:28;;;;;;;;;2.40;2.40;;;;;25.62;37.01;99952.25;5093326;28;8856;-60
2023/06/14 10:07:57;;;;;;;;;3.00;3.00;;;;;25.80;36.60;99945.81;5093307;28;9635;-60
2023/06/14 10:10:25;;;;;;;;;5.00;5.00;;;;;26.02;35.75;99951.78;5095635;28;8837;-59
2023/06/14 10:12:53;;;;;;;;;4.20;3.00;;;;;26.23;36.01;99943.22;5096153;28;8849;-59
2023/06/14 10:15:21;;;;;;;;;5.00;3.00;;;;;26.49;35.31;99943.03;5096130;28;8873;-58
2023/06/14 10:17:49;;;;;;;;;2.80;2.60;;;;;26.82;34.87;99938.94;5096453;28;8867;-58
2023/06/14 10:20:18;;;;;;;;;5.80;5.00;;;;;27.10;34.46;99947.44;5095775;28;8861;-58
2023/06/14 10:22:46;;;;;;;;;6.00;6.00;;;;;27.33;34.87;99947.59;5095351;28;8929;-59
2023/06/14 10:25:14;;;;;;;;;4.00;3.00;;;;;27.57;34.62;99949.44;5096460;28;8881;-60
2023/06/14 10:27:42;;;;;;;;;3.40;3.40;;;;;27.82;34.31;99952.03;5096043;28;8849;-58
2023/06/14 10:30:10;;;;;;;;;6.00;6.00;;;;;28.10;33.70;99942.16;5096295;28;8861;-58
2023/06/14 10:32:38;;;;;;;;;4.00;4.00;;;;;28.39;33.29;99938.53;5097002;28;8870;-59
2023/06/14 10:35:07;;;;;;;;;6.20;6.20;;;;;28.67;33.53;99938.66;5096111;28;8849;-60
2023/06/14 10:37:35;;;;;;;;;6.00;6.00;;;;;28.89;32.84;99939.72;5095798;28;9003;-59
2023/06/14 10:40:07;;;;;;;;;4.00;4.00;;;;;29.14;32.43;99943.03;5096177;28;8857;-58
2023/06/14 10:42:35;;;;;;;;;6.20;6.20;;;;;29.30;32.61;99939.56;5096538;28;8879;-60
2023/06/14 10:45:03;;;;;;;;;5.80;5.60;;;;;29.47;32.18;99945.97;5094457;28;8845;-59
2023/06/14 10:47:31;;;;;;;;;4.00;4.00;;;;;29.62;31.96;99937.22;5094767;28;8906;-58
2023/06/14 10:50:00;;;;;;;;;4.00;4.00;;;;;29.80;31.74;99935.09;5095198;28;8861;-58
2023/06/14 10:52:29;;;;;;;;;7.40;6.80;;;;;29.99;31.70;99936.56;5094824;28;8856;-59
2023/06/14 10:54:57;;;;;;;;;8.00;7.00;;;;;30.22;31.39;99930.97;5095128;28;9558;-58
2023/06/14 10:57:25;;;;;;;;;6.00;5.80;;;;;30.47;31.00;99925.06;5094816;28;8871;-62
2023/06/14 10:59:54;;;;;;;;;6.20;6.00;;;;;30.72;30.70;99929.03;5095114;28;8945;-58
2023/06/14 11:02:22;;;;;;;;;4.60;4.60;;;;;30.92;30.54;99918.34;5095141;28;9538;-59
2023/06/14 11:04:51;;;;;;;;;7.00;7.00;;;;;31.11;30.39;99927.97;5095064;28;8853;-58
2023/06/14 11:07:19;;;;;;;;;7.00;6.40;;;;;31.16;29.97;99928.91;5093871;28;8871;-58
2023/06/14 11:09:47;;;;;;;;;9.00;9.00;;;;;31.13;29.93;99923.88;5094257;28;8856;-58
2023/06/14 11:12:15;;;;;;;;;7.20;7.00;;;;;31.18;30.01;99918.47;5094705;28;8865;-60
2023/06/14 11:14:43;;;;;;;;;6.00;6.00;;;;;31.27;29.96;99924.38;5095092;28;8852;-58
2023/06/14 11:17:11;;;;;;;;;6.20;6.20;;;;;31.38;30.27;99926.16;5094663;28;8833;-60
2023/06/14 11:19:40;;;;;;;;;7.00;7.00;;;;;31.57;29.22;99924.75;5095445;28;8853;-59
2023/06/14 11:22:09;;;;;;;;;6.60;6.60;;;;;31.72;29.34;99922.19;5093648;28;8845;-58
2023/06/14 11:24:37;;;;;;;;;7.60;6.60;;;;;31.86;29.21;99912.41;5094770;28;8853;-59
2023/06/14 11:27:06;;;;;;;;;6.80;6.80;;;;;31.96;29.00;99926.28;5095218;28;8845;-59
2023/06/14 11:29:34;;;;;;;;;6.00;6.00;;;;;32.01;28.96;99926.34;5095582;28;8860;-60
2023/06/14 11:32:02;;;;;;;;;8.00;7.40;;;;;32.03;28.91;99922.22;5095050;28;9843;-59
2023/06/14 11:34:30;;;;;;;;;5.40;5.40;;;;;32.10;28.57;99930.28;5095031;28;8845;-59
2023/06/14 11:36:58;;;;;;;;;7.80;7.80;;;;;32.09;28.37;99917.59;5095008;28;8837;-58
2023/06/14 11:39:27;;;;;;;;;6.20;6.20;;;;;32.27;28.51;99925.50;5095001;28;8853;-59
2023/06/14 11:41:55;;;;;;;;;7.20;7.00;;;;;32.48;27.88;99919.06;5094913;28;8881;-58